createdAt,value
2022-10-19T00:01:55.752Z,99771.20
2022-10-19T00:04:29.056Z,99768.90
2022-10-19T00:07:00.720Z,99769.60
2022-10-19T00:09:32.374Z,99770.23
2022-10-19T00:12:04.096Z,99776.12
2022-10-19T00:14:35.903Z,99777.42
2022-10-19T00:17:07.696Z,99783.85
2022-10-19T00:19:39.443Z,99790.56
2022-10-19T00:22:13.185Z,99791.81
2022-10-19T00:24:46.231Z,99789.00
2022-10-19T00:27:20.069Z,99790.76
2022-10-19T00:29:52.002Z,99792.15
2022-10-19T00:32:23.809Z,99796.77
2022-10-19T00:34:55.547Z,99794.96
2022-10-19T00:37:27.359Z,99796.17
2022-10-19T00:39:59.065Z,99795.10
2022-10-19T00:42:30.912Z,99793.56
2022-10-19T00:45:16.083Z,99788.13
2022-10-19T00:47:48.266Z,99788.98
2022-10-19T00:50:20.365Z,99788.60
2022-10-19T00:52:52.043Z,99789.43
2022-10-19T00:55:24.381Z,99786.60
2022-10-19T00:57:56.451Z,99787.66
2022-10-19T01:00:28.698Z,99785.60
2022-10-19T01:03:01.173Z,99784.22
2022-10-19T01:05:33.730Z,99779.46
2022-10-19T01:08:07.190Z,99778.76
2022-10-19T01:10:48.251Z,99774.88
2022-10-19T01:13:35.825Z,99777.85
2022-10-19T01:16:16.447Z,99774.15
2022-10-19T01:18:55.919Z,99767.84
2022-10-19T01:21:29.835Z,99759.25
2022-10-19T01:24:27.546Z,99760.48
2022-10-19T01:27:33.634Z,99760.30
2022-10-19T01:30:09.797Z,99761.77
2022-10-19T01:33:03.620Z,99760.94
2022-10-19T01:35:41.368Z,99749.84
2022-10-19T01:38:23.617Z,99746.34
2022-10-19T01:41:03.611Z,99747.73
2022-10-19T01:43:43.319Z,99746.15
2022-10-19T01:46:20.538Z,99747.02
2022-10-19T01:48:57.737Z,99747.03
2022-10-19T01:51:33.262Z,99749.50
2022-10-19T01:54:09.645Z,99747.20
2022-10-19T01:56:44.370Z,99747.02
2022-10-19T01:59:19.371Z,99744.94
2022-10-19T02:01:54.736Z,99750.42
2022-10-19T02:04:27.720Z,99754.34
2022-10-19T02:07:00.247Z,99747.82
2022-10-19T02:09:32.142Z,99748.92
2022-10-19T02:12:07.823Z,99742.79
2022-10-19T02:14:44.289Z,99738.06
2022-10-19T02:17:19.283Z,99735.98
2022-10-19T02:19:51.015Z,99741.13
2022-10-19T02:22:24.116Z,99748.23
2022-10-19T02:24:55.915Z,99743.33
2022-10-19T02:27:27.940Z,99741.91
2022-10-19T02:29:59.617Z,99739.45
2022-10-19T02:32:31.442Z,99738.38
2022-10-19T02:35:03.531Z,99735.20
2022-10-19T02:40:10.180Z,99727.42
2022-10-19T02:42:46.460Z,99730.02
2022-10-19T02:45:24.003Z,99722.83
2022-10-19T02:48:00.016Z,99717.89
2022-10-19T02:50:32.177Z,99716.17
2022-10-19T02:53:04.053Z,99717.10
2022-10-19T02:55:35.846Z,99721.36
2022-10-19T02:58:07.553Z,99723.15
2022-10-19T03:00:39.369Z,99725.10
2022-10-19T03:03:11.940Z,99731.27
2022-10-19T03:05:43.709Z,99726.14
2022-10-19T03:08:15.439Z,99729.31
2022-10-19T03:10:47.091Z,99733.90
2022-10-19T03:13:19.205Z,99731.42
2022-10-19T03:15:51.355Z,99732.67
2022-10-19T03:18:22.990Z,99735.14
2022-10-19T03:21:04.503Z,99733.90
2022-10-19T03:23:36.551Z,99735.31
2022-10-19T03:26:12.185Z,99732.52
2022-10-19T03:28:44.537Z,99727.04
2022-10-19T03:31:16.471Z,99729.85
2022-10-19T03:33:48.236Z,99723.68
2022-10-19T03:36:23.990Z,99723.30
2022-10-19T03:38:56.842Z,99720.66
2022-10-19T03:41:30.432Z,99718.56
2022-10-19T03:44:02.459Z,99715.02
2022-10-19T03:46:34.604Z,99710.04
2022-10-19T03:49:06.656Z,99710.37
2022-10-19T03:51:38.865Z,99700.52
2022-10-19T03:54:13.546Z,99699.60
2022-10-19T03:56:45.459Z,99699.23
2022-10-19T03:59:17.943Z,99700.48
2022-10-19T04:01:49.645Z,99695.91
2022-10-19T04:04:22.330Z,99697.65
2022-10-19T04:06:54.475Z,99697.71
2022-10-19T04:09:26.165Z,99697.04
2022-10-19T04:11:57.778Z,99698.42
2022-10-19T04:14:32.664Z,99697.20
2022-10-19T04:17:06.194Z,99700.22
2022-10-19T04:19:37.843Z,99699.73
2022-10-19T04:22:09.553Z,99695.52
2022-10-19T04:24:41.184Z,99694.45
2022-10-19T04:27:12.851Z,99697.09
2022-10-19T04:29:44.874Z,99695.67
2022-10-19T04:32:16.571Z,99693.90
2022-10-19T04:34:48.214Z,99691.27
2022-10-19T04:37:19.847Z,99690.16
2022-10-19T04:39:51.498Z,99692.07
2022-10-19T04:42:23.181Z,99688.89
2022-10-19T04:44:55.238Z,99690.84
2022-10-19T04:47:26.924Z,99683.96
2022-10-19T04:49:58.681Z,99686.95
2022-10-19T04:52:31.208Z,99684.04
2022-10-19T04:55:02.947Z,99680.73
2022-10-19T04:57:34.851Z,99680.57
2022-10-19T05:00:08.321Z,99675.15
2022-10-19T05:02:43.248Z,99673.98
2022-10-19T05:05:15.533Z,99674.88
2022-10-19T05:07:50.043Z,99671.94
2022-10-19T05:10:22.092Z,99672.10
2022-10-19T05:12:53.980Z,99674.91
2022-10-19T05:15:25.768Z,99674.37
2022-10-19T05:17:57.410Z,99674.20
2022-10-19T05:20:29.359Z,99673.69
2022-10-19T05:23:06.205Z,99675.25
2022-10-19T05:25:39.205Z,99677.36
2022-10-19T05:28:11.017Z,99680.73
2022-10-19T05:30:46.669Z,99679.33
2022-10-19T05:33:21.315Z,99679.36
2022-10-19T05:35:53.520Z,99682.05
2022-10-19T05:38:25.378Z,99683.47
2022-10-19T05:40:57.303Z,99678.00
2022-10-19T05:43:29.118Z,99676.72
2022-10-19T05:46:06.116Z,99670.58
2022-10-19T05:48:37.942Z,99671.98
2022-10-19T05:51:12.759Z,99672.28
2022-10-19T05:53:44.659Z,99677.34
2022-10-19T05:56:19.353Z,99677.16
2022-10-19T05:58:52.239Z,99680.31
2022-10-19T06:01:24.351Z,99685.77
2022-10-19T06:03:58.950Z,99686.88
2022-10-19T06:06:31.942Z,99688.14
2022-10-19T06:09:04.598Z,99693.08
2022-10-19T06:11:39.239Z,99695.03
2022-10-19T06:14:13.083Z,99696.08
2022-10-19T06:16:46.943Z,99693.24
2022-10-19T06:19:18.795Z,99697.77
2022-10-19T06:21:51.166Z,99698.46
2022-10-19T06:24:23.196Z,99691.44
2022-10-19T06:26:55.011Z,99692.36
2022-10-19T06:29:26.988Z,99695.20
2022-10-19T06:32:00.318Z,99698.43
2022-10-19T06:34:32.343Z,99700.41
2022-10-19T06:37:04.213Z,99699.06
2022-10-19T06:39:36.260Z,99698.73
2022-10-19T06:42:09.780Z,99697.17
2022-10-19T06:44:41.501Z,99698.59
2022-10-19T06:47:13.306Z,99701.38
2022-10-19T06:49:46.135Z,99704.08
2022-10-19T06:52:18.129Z,99704.69
2022-10-19T06:54:49.985Z,99699.78
2022-10-19T06:57:23.284Z,99701.30
2022-10-19T06:59:55.019Z,99699.52
2022-10-19T07:02:27.322Z,99705.17
2022-10-19T07:05:01.151Z,99703.98
2022-10-19T07:07:36.563Z,99707.64
2022-10-19T07:10:09.779Z,99708.04
2022-10-19T07:12:41.766Z,99709.03
2022-10-19T07:15:14.617Z,99712.02
2022-10-19T07:17:46.418Z,99714.21
2022-10-19T07:20:18.439Z,99715.20
2022-10-19T07:22:50.368Z,99716.05
2022-10-19T07:25:22.182Z,99711.11
2022-10-19T07:27:54.246Z,99717.62
2022-10-19T07:30:26.313Z,99712.08
2022-10-19T07:32:57.968Z,99713.39
2022-10-19T07:35:29.787Z,99717.66
2022-10-19T07:38:01.502Z,99712.57
2022-10-19T07:40:33.461Z,99709.67
2022-10-19T07:43:05.535Z,99711.55
2022-10-19T07:45:37.593Z,99712.04
2022-10-19T07:48:09.709Z,99706.91
2022-10-19T07:50:41.523Z,99707.15
2022-10-19T07:53:13.459Z,99699.96
2022-10-19T07:55:45.298Z,99703.98
2022-10-19T07:58:17.224Z,99698.79
2022-10-19T08:00:49.102Z,99702.53
2022-10-19T08:06:14.995Z,99703.17
2022-10-19T08:08:47.344Z,99700.55
2022-10-19T08:11:21.976Z,99702.52
2022-10-19T08:13:54.967Z,99692.61
2022-10-19T08:16:29.200Z,99689.79
2022-10-19T08:19:02.234Z,99682.77
2022-10-19T08:21:34.230Z,99688.02
2022-10-19T08:24:06.557Z,99690.70
2022-10-19T08:26:40.669Z,99688.79
2022-10-19T08:29:14.433Z,99691.13
2022-10-19T08:31:47.981Z,99696.09
2022-10-19T08:34:19.822Z,99690.21
2022-10-19T08:36:51.544Z,99692.42
2022-10-19T08:39:23.604Z,99693.17
2022-10-19T08:42:03.574Z,99699.34
2022-10-19T08:44:54.961Z,99697.65
2022-10-19T08:47:39.910Z,99698.72
2022-10-19T08:50:21.378Z,99695.56
2022-10-19T08:53:01.920Z,99690.00
2022-10-19T08:55:43.270Z,99683.52
2022-10-19T08:58:30.374Z,99685.84
2022-10-19T09:01:08.244Z,99681.13
2022-10-19T09:03:55.504Z,99689.86
2022-10-19T09:06:33.764Z,99697.48
2022-10-19T09:09:04.707Z,99690.02
2022-10-19T09:11:40.560Z,99695.52
2022-10-19T09:14:19.549Z,99694.06
2022-10-19T09:16:51.466Z,99693.20
2022-10-19T09:19:30.271Z,99706.02
2022-10-19T09:22:07.327Z,99706.21
2022-10-19T09:24:48.623Z,99705.95
2022-10-19T09:27:24.659Z,99700.22
2022-10-19T09:29:59.636Z,99701.96
2022-10-19T09:32:36.348Z,99701.98
2022-10-19T09:35:23.055Z,99704.08
2022-10-19T09:37:55.954Z,99700.85
2022-10-19T09:40:30.799Z,99703.61
2022-10-19T09:43:18.709Z,99703.05
2022-10-19T09:45:55.446Z,99708.47
2022-10-19T09:48:33.253Z,99710.67
2022-10-19T09:51:05.116Z,99706.52
2022-10-19T09:53:37.326Z,99708.30
2022-10-19T09:56:18.443Z,99703.14
2022-10-19T09:58:52.834Z,99702.25
2022-10-19T10:01:41.941Z,99701.00
2022-10-19T10:04:18.093Z,99697.77
2022-10-19T10:06:51.075Z,99697.11
2022-10-19T10:09:27.403Z,99697.52
2022-10-19T10:12:01.956Z,99694.09
2022-10-19T10:14:39.701Z,99697.70
2022-10-19T10:17:19.172Z,99696.30
2022-10-19T10:20:06.524Z,99687.17
2022-10-19T10:22:39.059Z,99687.08
2022-10-19T10:25:19.040Z,99683.20
2022-10-19T10:28:02.201Z,99679.95
2022-10-19T10:30:37.727Z,99685.76
2022-10-19T10:33:26.950Z,99680.45
2022-10-19T10:36:11.066Z,99676.34
2022-10-19T10:38:47.728Z,99680.73
2022-10-19T10:41:24.069Z,99679.37
2022-10-19T10:44:02.280Z,99681.52
2022-10-19T10:46:40.941Z,99675.23
2022-10-19T10:49:22.637Z,99678.95
2022-10-19T10:51:57.943Z,99666.91
2022-10-19T10:54:31.550Z,99662.81
2022-10-19T10:57:12.372Z,99668.29
2022-10-19T10:59:53.272Z,99668.14
2022-10-19T11:02:42.757Z,99666.64
2022-10-19T11:05:21.763Z,99665.93
2022-10-19T11:07:56.650Z,99670.48
2022-10-19T11:10:32.303Z,99670.86
2022-10-19T11:13:13.246Z,99662.15
2022-10-19T11:15:54.847Z,99664.27
2022-10-19T11:18:31.015Z,99661.23
2022-10-19T11:21:10.831Z,99662.55
2022-10-19T11:23:55.357Z,99663.77
2022-10-19T11:26:42.473Z,99661.27
2022-10-19T11:29:29.061Z,99656.20
2022-10-19T11:32:00.915Z,99652.67
2022-10-19T11:34:54.227Z,99650.23
2022-10-19T11:37:34.718Z,99652.85
2022-10-19T11:40:22.285Z,99646.81
2022-10-19T11:43:05.021Z,99644.71
2022-10-19T11:45:53.035Z,99645.70
2022-10-19T11:48:43.830Z,99649.45
2022-10-19T11:51:23.051Z,99642.90
2022-10-19T11:54:05.385Z,99637.36
2022-10-19T11:57:01.916Z,99635.45
2022-10-19T11:59:44.973Z,99631.73
2022-10-19T12:02:38.326Z,99627.44
2022-10-19T12:05:14.920Z,99632.39
2022-10-19T12:08:02.968Z,99631.30
2022-10-19T12:10:44.231Z,99625.73
2022-10-19T12:13:20.083Z,99627.52
2022-10-19T12:15:54.079Z,99624.79
2022-10-19T12:18:33.265Z,99625.23
2022-10-19T12:21:10.912Z,99625.34
2022-10-19T12:23:46.878Z,99630.31
2022-10-19T12:26:21.050Z,99622.08
2022-10-19T12:28:57.053Z,99616.07
2022-10-19T12:31:30.796Z,99617.67
2022-10-19T12:34:11.362Z,99619.61
2022-10-19T12:36:51.523Z,99613.10
2022-10-19T12:39:28.304Z,99621.38
2022-10-19T12:42:10.651Z,99620.92
2022-10-19T12:45:05.864Z,99621.33
2022-10-19T12:47:37.873Z,99620.73
2022-10-19T12:50:10.253Z,99622.68
2022-10-19T12:52:45.611Z,99620.21
2022-10-19T12:55:29.778Z,99612.45
2022-10-19T12:58:05.717Z,99611.58
2022-10-19T13:00:39.174Z,99611.05
2022-10-19T13:03:25.086Z,99615.30
2022-10-19T13:06:01.211Z,99615.36
2022-10-19T13:08:37.905Z,99612.76
2022-10-19T13:11:14.885Z,99618.22
2022-10-19T13:14:04.207Z,99620.15
2022-10-19T13:17:00.246Z,99616.27
2022-10-19T13:19:32.402Z,99615.19
2022-10-19T13:22:28.060Z,99611.30
2022-10-19T13:25:27.167Z,99615.17
2022-10-19T13:28:03.717Z,99620.13
2022-10-19T13:31:07.001Z,99616.07
2022-10-19T13:33:48.574Z,99616.63
2022-10-19T13:36:21.543Z,99612.89
2022-10-19T13:39:16.661Z,99613.91
2022-10-19T13:41:53.071Z,99608.08
2022-10-19T13:44:28.481Z,99607.02
2022-10-19T13:47:22.159Z,99609.64
2022-10-19T13:50:16.480Z,99614.03
2022-10-19T13:53:21.916Z,99612.11
2022-10-19T13:56:17.965Z,99611.10
2022-10-19T13:59:28.165Z,99610.98
2022-10-19T14:02:23.772Z,99606.98
2022-10-19T14:05:12.211Z,99612.18
2022-10-19T14:07:56.180Z,99606.11
2022-10-19T14:10:33.056Z,99609.84
2022-10-19T14:13:06.825Z,99605.30
2022-10-19T14:15:38.655Z,99605.20
2022-10-19T14:18:26.454Z,99607.19
2022-10-19T14:21:03.029Z,99598.48
2022-10-19T14:23:36.467Z,99600.84
2022-10-19T14:26:14.867Z,99616.75
2022-10-19T14:28:46.882Z,99617.00
2022-10-19T14:31:24.166Z,99618.08
2022-10-19T14:34:00.895Z,99610.55
2022-10-19T14:36:37.424Z,99617.73
2022-10-19T14:39:09.840Z,99610.86
2022-10-19T14:41:41.513Z,99614.72
2022-10-19T14:44:33.989Z,99617.66
2022-10-19T14:47:16.970Z,99617.67
2022-10-19T14:49:49.134Z,99619.20
2022-10-19T14:55:12.675Z,99618.91
2022-10-19T14:57:51.469Z,99625.96
2022-10-19T15:03:06.215Z,99629.40
2022-10-19T15:05:42.585Z,99631.04
2022-10-19T15:08:25.511Z,99638.12
2022-10-19T15:10:57.463Z,99641.55
2022-10-19T15:13:33.033Z,99640.41
2022-10-19T15:16:04.856Z,99639.08
2022-10-19T15:18:56.113Z,99635.82
2022-10-19T15:21:29.466Z,99642.19
2022-10-19T15:24:22.771Z,99643.61
2022-10-19T15:27:08.706Z,99645.77
2022-10-19T15:29:40.969Z,99643.18
2022-10-19T15:32:24.959Z,99645.66
2022-10-19T15:34:57.418Z,99655.19
2022-10-19T15:37:29.141Z,99650.09
2022-10-19T15:40:09.494Z,99656.45
2022-10-19T15:42:44.457Z,99659.30
2022-10-19T15:45:34.168Z,99658.59
2022-10-19T15:48:29.705Z,99669.65
2022-10-19T15:51:01.405Z,99699.52
2022-10-19T15:53:33.122Z,99695.48
2022-10-19T15:56:04.818Z,99694.10
2022-10-19T15:58:36.527Z,99701.64
2022-10-19T16:01:16.025Z,99712.31
2022-10-19T16:03:48.367Z,99714.33
2022-10-19T16:06:21.263Z,99713.23
2022-10-19T16:08:54.317Z,99713.89
2022-10-19T16:11:30.291Z,99717.35
2022-10-19T16:14:02.228Z,99719.60
2022-10-19T16:16:35.451Z,99719.55
2022-10-19T16:19:07.379Z,99723.39
2022-10-19T16:21:39.428Z,99720.70
2022-10-19T16:24:11.097Z,99719.13
2022-10-19T16:26:42.822Z,99721.71
2022-10-19T16:29:14.568Z,99722.73
2022-10-19T16:31:48.661Z,99724.84
2022-10-19T16:34:20.635Z,99731.30
2022-10-19T16:36:52.490Z,99728.66
2022-10-19T16:39:25.603Z,99726.55
2022-10-19T16:41:57.357Z,99730.59
2022-10-19T16:44:31.483Z,99732.69
2022-10-19T16:47:03.167Z,99733.91
2022-10-19T16:49:35.054Z,99741.78
2022-10-19T16:52:07.117Z,99744.73
2022-10-19T16:54:39.314Z,99746.64
2022-10-19T16:57:11.043Z,99748.39
2022-10-19T16:59:42.819Z,99755.74
2022-10-19T17:02:14.895Z,99755.61
2022-10-19T17:04:46.594Z,99766.65
2022-10-19T17:07:19.376Z,99766.48
2022-10-19T17:09:54.743Z,99775.94
2022-10-19T17:12:26.731Z,99775.06
2022-10-19T17:15:17.634Z,99775.05
2022-10-19T17:17:50.631Z,99778.90
2022-10-19T17:20:22.306Z,99777.50
2022-10-19T17:22:55.582Z,99779.94
2022-10-19T17:25:27.572Z,99783.05
2022-10-19T17:27:59.634Z,99793.73
2022-10-19T17:30:31.331Z,99799.15
2022-10-19T17:33:02.997Z,99804.04
2022-10-19T17:35:36.256Z,99805.08
2022-10-19T17:38:07.949Z,99812.27
2022-10-19T17:40:39.866Z,99814.54
2022-10-19T17:43:11.865Z,99817.69
2022-10-19T17:51:12.171Z,99834.14
2022-10-19T17:53:45.281Z,99836.30
2022-10-19T17:56:20.226Z,99837.86
2022-10-19T17:58:52.593Z,99841.70
2022-10-19T18:01:25.968Z,99846.58
2022-10-19T18:03:58.320Z,99848.14
2022-10-19T18:06:32.500Z,99848.65
2022-10-19T18:09:06.887Z,99848.45
2022-10-19T18:11:41.329Z,99848.44
2022-10-19T18:14:14.098Z,99852.98
2022-10-19T18:16:47.653Z,99856.98
2022-10-19T18:19:19.337Z,99858.52
2022-10-19T18:21:51.126Z,99861.27
2022-10-19T18:24:23.133Z,99870.65
2022-10-19T18:26:54.976Z,99876.05
2022-10-19T18:32:13.912Z,99875.45
2022-10-19T18:34:45.709Z,99878.43
2022-10-19T18:37:17.613Z,99880.70
2022-10-19T18:39:49.377Z,99884.20
2022-10-19T18:42:21.015Z,99886.48
2022-10-19T18:44:52.682Z,99887.18
2022-10-19T18:47:24.373Z,99891.88
2022-10-19T18:49:56.841Z,99892.72
2022-10-19T18:52:28.582Z,99897.59
2022-10-19T18:55:00.249Z,99899.77
2022-10-19T18:57:32.093Z,99902.36
2022-10-19T19:00:03.902Z,99905.33
2022-10-19T19:02:46.303Z,99909.39
2022-10-19T19:05:19.565Z,99913.66
2022-10-19T19:07:51.680Z,99916.48
2022-10-19T19:10:23.621Z,99923.30
2022-10-19T19:12:55.437Z,99920.33
2022-10-19T19:15:27.148Z,99925.74
2022-10-19T19:17:58.896Z,99928.48
2022-10-19T19:20:30.645Z,99936.14
2022-10-19T19:23:02.476Z,99939.94
2022-10-19T19:25:34.341Z,99947.88
2022-10-19T19:28:06.070Z,99949.64
2022-10-19T19:30:41.920Z,99954.96
2022-10-19T19:33:14.454Z,99956.08
2022-10-19T19:35:47.591Z,99961.26
2022-10-19T19:38:19.445Z,99961.52
2022-10-19T19:40:51.308Z,99964.61
2022-10-19T19:43:23.065Z,99964.47
2022-10-19T19:46:03.179Z,99969.29
2022-10-19T19:48:38.118Z,99975.89
2022-10-19T19:51:12.239Z,99978.77
2022-10-19T19:53:44.326Z,99977.67
2022-10-19T19:56:17.762Z,99981.96
2022-10-19T19:58:49.620Z,99982.02
2022-10-19T20:01:22.978Z,99984.74
2022-10-19T20:03:54.739Z,99992.68
2022-10-19T20:06:26.491Z,99991.86
2022-10-19T20:08:58.547Z,99997.87
2022-10-19T20:11:31.473Z,99996.36
2022-10-19T20:14:03.175Z,99998.90
2022-10-19T20:16:34.926Z,99997.63
2022-10-19T20:19:10.171Z,99999.30
2022-10-19T20:21:42.333Z,100000.09
2022-10-19T20:24:14.087Z,99997.59
2022-10-19T20:26:45.817Z,100001.76
2022-10-19T20:29:17.622Z,100006.75
2022-10-19T20:31:49.292Z,100013.15
2022-10-19T20:34:23.111Z,100014.30
2022-10-19T20:36:55.679Z,100017.80
2022-10-19T20:39:27.446Z,100015.13
2022-10-19T20:41:59.121Z,100017.69
2022-10-19T20:44:30.776Z,100019.55
2022-10-19T20:47:02.496Z,100021.94
2022-10-19T20:49:34.292Z,100020.14
2022-10-19T20:52:06.052Z,100018.53
2022-10-19T20:54:38.068Z,100018.02
2022-10-19T20:57:09.722Z,100019.52
2022-10-19T20:59:41.405Z,100023.59
2022-10-19T21:02:13.492Z,100028.77
2022-10-19T21:04:45.229Z,100028.36
2022-10-19T21:07:16.934Z,100034.71
2022-10-19T21:09:48.720Z,100037.47
2022-10-19T21:12:20.359Z,100041.44
2022-10-19T21:14:52.014Z,100043.84
2022-10-19T21:17:23.729Z,100043.96
2022-10-19T21:19:57.311Z,100045.45
2022-10-19T21:22:29.252Z,100049.39
2022-10-19T21:25:00.981Z,100051.09
2022-10-19T21:27:32.847Z,100052.98
2022-10-19T21:30:05.080Z,100054.14
2022-10-19T21:32:36.760Z,100053.79
2022-10-19T21:35:09.444Z,100052.19
2022-10-19T21:37:41.236Z,100048.25
2022-10-19T21:40:13.861Z,100047.44
2022-10-19T21:42:46.265Z,100043.26
2022-10-19T21:45:29.831Z,100043.83
2022-10-19T21:48:02.450Z,100042.38
2022-10-19T21:50:34.171Z,100044.09
2022-10-19T21:53:05.853Z,100053.34
2022-10-19T21:55:37.760Z,100055.09
2022-10-19T21:58:09.471Z,100060.02
2022-10-19T22:00:41.350Z,100064.45
2022-10-19T22:05:55.612Z,100065.14
2022-10-19T22:08:27.499Z,100065.22
2022-10-19T22:10:59.310Z,100069.17
2022-10-19T22:13:30.987Z,100070.12
2022-10-19T22:16:07.730Z,100075.14
2022-10-19T22:18:39.712Z,100075.48
2022-10-19T22:21:13.281Z,100081.94
2022-10-19T22:23:45.948Z,100077.66
2022-10-19T22:26:20.900Z,100074.89
2022-10-19T22:28:52.854Z,100076.54
2022-10-19T22:31:25.415Z,100080.31
2022-10-19T22:33:57.480Z,100081.50
2022-10-19T22:36:29.664Z,100080.11
2022-10-19T22:39:01.412Z,100082.83
2022-10-19T22:42:25.610Z,100082.08
2022-10-19T22:45:16.323Z,100078.81
2022-10-19T22:47:48.676Z,100079.25
2022-10-19T22:50:21.049Z,100073.52
2022-10-19T22:52:53.435Z,100077.90
2022-10-19T22:55:26.186Z,100081.55
2022-10-19T22:57:58.851Z,100082.63
2022-10-19T23:00:31.563Z,100083.13
2022-10-19T23:03:03.911Z,100086.45
2022-10-19T23:05:36.240Z,100088.13
2022-10-19T23:08:09.038Z,100086.80
2022-10-19T23:10:41.331Z,100089.66
2022-10-19T23:13:13.632Z,100094.08
2022-10-19T23:15:46.355Z,100097.52
2022-10-19T23:18:18.869Z,100100.61
2022-10-19T23:20:58.353Z,100102.34
2022-10-19T23:23:32.350Z,100098.33
2022-10-19T23:26:06.509Z,100099.70
2022-10-19T23:28:40.168Z,100104.20
2022-10-19T23:31:14.687Z,100109.52
2022-10-19T23:33:47.630Z,100106.33
2022-10-19T23:36:22.142Z,100106.30
2022-10-19T23:38:55.726Z,100108.21
2022-10-19T23:41:27.866Z,100112.62
2022-10-19T23:43:59.507Z,100109.06
2022-10-19T23:46:31.281Z,100112.12
2022-10-19T23:49:02.935Z,100115.13
2022-10-19T23:51:34.712Z,100117.83
2022-10-19T23:54:06.525Z,100119.33
2022-10-19T23:56:38.411Z,100121.09
2022-10-19T23:59:10.040Z,100124.88
